Terminal Aerodrome Forecast
Issued by NWS

Home | Current Version | Previous Version | Graphics & Text | Print | Product List | Glossary On
Versions: 1 2 3 4 5 6 7 8 9 10 11 12 13 14 15 16 17 18 19 20 21 22 23 24 25 26 27 28 29 30 31 32 33 34 35 36 37 38 39 40 41 42 43 44 45 46 47 48 49 50
000
FTUS45 KBOU 272359 AAA
TAFAPA
TAF AMD
KAPA 272359Z 2800/2824 34008KT P6SM SCT100 SCT200
     FM280200 23007KT P6SM FEW100 SCT200
     FM280400 19007KT P6SM SCT200
     FM281900 27010KT P6SM FEW100=

USA.gov is the U.S. government's official web portal to all federal, state and local government web resources and services.